Time;durP1;ratioP1;P1;durP2;ratioP2;P2;SDS_P1;SDS_P2;PMS_P1;PMS_P2;Temp;Humidity;BMP_temperature;BMP_pressure;BME280_temperature;BME280_humidity;BME280_pressure;Samples;Min_cycle;Max_cycle;Signal;HPM_P1;HPM_P2
2021/09/16 00:01:27;;;;;;;8.87;8.13;;;;;;;16.00;100.00;96608.75;5072148;28;20204;-78
2021/09/16 00:03:56;;;;;;;10.03;9.13;;;;;;;16.08;100.00;96616.66;5071314;28;20190;-78
2021/09/16 00:06:23;;;;;;;8.97;8.17;;;;;;;16.17;100.00;96615.50;5071976;28;20221;-78
2021/09/16 00:08:50;;;;;;;11.20;9.03;;;;;;;16.07;100.00;96615.81;5071929;28;20194;-78
2021/09/16 00:11:18;;;;;;;7.87;7.23;;;;;;;16.01;100.00;96615.72;5071800;28;20206;-78
2021/09/16 00:13:45;;;;;;;10.37;9.00;;;;;;;15.89;100.00;96604.75;5073861;28;20202;-78
2021/09/16 00:16:12;;;;;;;9.80;9.00;;;;;;;15.96;100.00;96602.19;5075924;28;20200;-78
2021/09/16 00:18:40;;;;;;;9.90;9.00;;;;;;;15.95;100.00;96600.56;5075632;28;20201;-78
2021/09/16 00:21:09;;;;;;;10.10;9.20;;;;;;;15.94;100.00;96605.03;5076111;28;20284;-78
2021/09/16 00:23:36;;;;;;;10.37;9.20;;;;;;;15.69;100.00;96610.63;5075283;28;20589;-78
2021/09/16 00:26:03;;;;;;;10.53;9.40;;;;;;;15.75;100.00;96609.06;5075952;28;20204;-78
2021/09/16 00:28:30;;;;;;;8.83;8.10;;;;;;;15.78;100.00;96607.88;5075376;28;20527;-78
2021/09/16 00:30:58;;;;;;;10.47;9.27;;;;;;;15.77;100.00;96612.34;5075382;28;20230;-78
2021/09/16 00:33:25;;;;;;;9.53;8.73;;;;;;;15.85;100.00;96603.47;5075630;28;20208;-78
2021/09/16 00:35:52;;;;;;;9.73;8.83;;;;;;;15.78;100.00;96599.91;5075392;28;20284;-78
2021/09/16 00:38:21;;;;;;;11.20;8.30;;;;;;;15.68;100.00;96595.72;5075288;28;20204;-78
2021/09/16 00:40:48;;;;;;;10.27;9.20;;;;;;;15.89;100.00;96602.91;5075583;28;20202;-78
2021/09/16 00:43:15;;;;;;;10.27;9.27;;;;;;;15.82;100.00;96603.84;5075440;28;20201;-77
2021/09/16 00:45:42;;;;;;;9.93;8.50;;;;;;;15.50;100.00;96602.34;5075355;28;20207;-78
2021/09/16 00:48:10;;;;;;;8.73;7.93;;;;;;;15.53;100.00;96601.97;5075017;28;20317;-78
2021/09/16 00:50:37;;;;;;;10.73;9.20;;;;;;;15.64;100.00;96606.81;5075536;28;20197;-78
2021/09/16 00:53:05;;;;;;;9.40;8.47;;;;;;;15.49;100.00;96606.81;5075027;28;20201;-78
2021/09/16 00:55:35;;;;;;;12.43;9.47;;;;;;;15.74;100.00;96610.06;5074863;28;20198;-78
2021/09/16 00:58:04;;;;;;;10.17;9.17;;;;;;;15.54;100.00;96609.75;5075158;28;20203;-78
2021/09/16 01:00:32;;;;;;;8.67;7.87;;;;;;;15.70;100.00;96608.78;5074939;28;20213;-79
2021/09/16 01:03:00;;;;;;;8.50;7.80;;;;;;;15.51;100.00;96602.16;5074565;28;20205;-78
2021/09/16 01:05:27;;;;;;;10.87;9.43;;;;;;;15.48;100.00;96601.69;5075257;28;20643;-78
2021/09/16 01:07:59;;;;;;;9.10;8.27;;;;;;;15.20;100.00;96599.63;5074904;28;20593;-78
2021/09/16 01:10:26;;;;;;;10.73;9.60;;;;;;;14.94;100.00;96597.38;5074796;28;20187;-77
2021/09/16 01:12:55;;;;;;;10.10;9.20;;;;;;;14.81;100.00;96591.84;5074403;28;20209;-78
2021/09/16 01:15:22;;;;;;;10.07;8.57;;;;;;;15.29;100.00;96589.81;5074705;28;20688;-78
2021/09/16 01:17:50;;;;;;;9.20;8.40;;;;;;;15.31;100.00;96596.56;5074867;28;20198;-78
2021/09/16 01:20:17;;;;;;;10.77;9.60;;;;;;;15.45;100.00;96594.94;5074977;28;20199;-77
2021/09/16 01:22:46;;;;;;;11.33;9.00;;;;;;;15.53;100.00;96594.03;5074175;28;20734;-78
2021/09/16 01:25:14;;;;;;;10.57;9.40;;;;;;;15.28;100.00;96582.88;5074440;28;20280;-77
2021/09/16 01:27:41;;;;;;;9.20;8.30;;;;;;;15.13;100.00;96583.63;5074271;28;20298;-78
2021/09/16 01:30:09;;;;;;;9.33;8.43;;;;;;;15.31;100.00;96587.78;5074540;28;20673;-77
2021/09/16 01:32:37;;;;;;;12.47;8.90;;;;;;;15.36;100.00;96583.59;5074323;28;20231;-78
2021/09/16 01:35:05;;;;;;;9.33;8.43;;;;;;;15.48;100.00;96588.44;5074177;28;20303;-77
2021/09/16 01:37:32;;;;;;;9.90;8.90;;;;;;;15.38;100.00;96586.09;5074997;28;20244;-78
2021/09/16 01:40:01;;;;;;;12.23;8.80;;;;;;;15.24;100.00;96582.41;5074191;28;20199;-77
2021/09/16 01:42:28;;;;;;;10.90;8.90;;;;;;;15.43;100.00;96581.06;5074231;28;20206;-77
2021/09/16 01:44:55;;;;;;;8.83;8.03;;;;;;;15.30;100.00;96581.66;5074096;28;20208;-78
2021/09/16 01:47:23;;;;;;;10.30;9.20;;;;;;;15.12;100.00;96578.53;5073956;28;20221;-78
2021/09/16 01:49:50;;;;;;;10.80;9.67;;;;;;;15.22;100.00;96576.47;5074021;28;20288;-78
2021/09/16 01:52:17;;;;;;;10.30;9.13;;;;;;;15.25;100.00;96578.75;5074089;28;20675;-78
2021/09/16 01:54:45;;;;;;;10.33;9.43;;;;;;;15.08;100.00;96572.78;5073736;28;20297;-78
2021/09/16 01:57:14;;;;;;;9.27;8.47;;;;;;;15.11;100.00;96564.47;5073924;28;20240;-78
2021/09/16 01:59:41;;;;;;;9.70;8.80;;;;;;;15.10;100.00;96575.22;5073858;28;20201;-78
2021/09/16 02:02:08;;;;;;;10.90;9.90;;;;;;;15.25;100.00;96576.09;5073885;28;20201;-78
2021/09/16 02:04:35;;;;;;;10.17;9.17;;;;;;;14.88;100.00;96575.09;5073715;28;20280;-77
2021/09/16 02:07:02;;;;;;;10.03;9.03;;;;;;;14.86;100.00;96578.91;5074083;28;20604;-78
2021/09/16 02:09:29;;;;;;;10.10;9.20;;;;;;;14.87;100.00;96568.16;5073559;28;20199;-78
2021/09/16 02:11:57;;;;;;;9.93;9.00;;;;;;;15.00;100.00;96562.28;5073718;28;20574;-78
2021/09/16 02:14:25;;;;;;;12.97;11.57;;;;;;;14.88;100.00;96564.50;5073452;28;20205;-78
2021/09/16 02:16:53;;;;;;;11.00;10.00;;;;;;;14.50;100.00;96561.81;5073735;28;20209;-77
2021/09/16 02:19:20;;;;;;;10.03;9.07;;;;;;;14.55;100.00;96550.72;5073389;28;20203;-78
2021/09/16 02:21:47;;;;;;;10.67;9.07;;;;;;;14.50;100.00;96553.06;5073428;28;20208;-78
2021/09/16 02:24:14;;;;;;;10.07;9.17;;;;;;;14.32;100.00;96548.03;5073241;28;20291;-77
2021/09/16 02:26:42;;;;;;;11.20;10.00;;;;;;;14.12;100.00;96557.41;5073600;28;20296;-77
2021/09/16 02:29:09;;;;;;;9.97;8.63;;;;;;;13.96;100.00;96545.91;5073235;28;20197;-77
2021/09/16 02:31:38;;;;;;;10.43;9.40;;;;;;;14.43;100.00;96542.31;5073092;28;20321;-77
2021/09/16 02:34:05;;;;;;;11.80;8.40;;;;;;;14.54;100.00;96537.66;5073048;28;20772;-78
2021/09/16 02:36:32;;;;;;;10.00;9.10;;;;;;;14.75;100.00;96537.81;5072975;28;20193;-77
2021/09/16 02:38:59;;;;;;;9.67;8.47;;;;;;;14.72;100.00;96530.22;5073006;28;20197;-78
2021/09/16 02:41:27;;;;;;;10.40;9.30;;;;;;;14.85;100.00;96534.94;5073080;28;20207;-77
2021/09/16 02:43:54;;;;;;;9.87;9.00;;;;;;;14.57;100.00;96535.47;5072933;28;20200;-77
2021/09/16 02:46:22;;;;;;;10.33;9.43;;;;;;;14.48;100.00;96536.53;5072714;28;20208;-77
2021/09/16 02:48:50;;;;;;;10.83;9.47;;;;;;;14.56;100.00;96538.31;5072754;28;20315;-77
2021/09/16 02:51:18;;;;;;;10.33;9.37;;;;;;;14.71;100.00;96540.00;5073103;28;20201;-78
2021/09/16 02:53:45;;;;;;;10.83;8.77;;;;;;;14.90;100.00;96529.94;5072921;28;20204;-78
2021/09/16 02:56:12;;;;;;;11.27;8.40;;;;;;;14.78;100.00;96542.75;5072527;28;20749;-78
2021/09/16 02:58:39;;;;;;;10.30;9.13;;;;;;;14.67;100.00;96543.19;5072935;28;20283;-78
2021/09/16 03:01:07;;;;;;;9.23;8.40;;;;;;;14.64;100.00;96543.53;5072559;28;20288;-78
2021/09/16 03:03:34;;;;;;;13.43;9.07;;;;;;;14.83;100.00;96536.94;5072486;28;20765;-78
2021/09/16 03:06:02;;;;;;;10.67;9.43;;;;;;;14.80;100.00;96540.75;5072660;28;20203;-78
2021/09/16 03:08:30;;;;;;;9.33;8.43;;;;;;;14.72;100.00;96538.16;5072264;28;20228;-78
2021/09/16 03:10:57;;;;;;;10.80;9.07;;;;;;;14.82;100.00;96538.75;5072439;28;20245;-78
2021/09/16 03:13:24;;;;;;;8.87;8.07;;;;;;;14.91;100.00;96539.50;5072573;28;20229;-78
2021/09/16 03:15:51;;;;;;;13.67;9.27;;;;;;;14.69;100.00;96543.84;5072461;28;20303;-78
2021/09/16 03:18:19;;;;;;;9.90;9.03;;;;;;;14.63;100.00;96542.72;5072105;28;20190;-77
2021/09/16 03:20:46;;;;;;;14.30;9.00;;;;;;;14.69;100.00;96549.13;5072584;28;20515;-78
2021/09/16 03:23:14;;;;;;;11.40;10.17;;;;;;;14.73;100.00;96550.41;5071799;28;20765;-78
2021/09/16 03:25:42;;;;;;;10.00;9.10;;;;;;;14.91;100.00;96550.09;5072203;28;20201;-78
2021/09/16 03:28:09;;;;;;;11.50;8.33;;;;;;;14.95;100.00;96554.84;5071875;28;20229;-78
2021/09/16 03:30:36;;;;;;;12.70;9.53;;;;;;;15.21;100.00;96551.00;5071911;28;20243;-78
2021/09/16 03:33:03;;;;;;;9.70;8.70;;;;;;;15.20;100.00;96546.69;5071973;28;20224;-78
2021/09/16 03:35:31;;;;;;;9.60;8.67;;;;;;;15.34;100.00;96553.00;5072182;28;20219;-78
2021/09/16 03:37:58;;;;;;;10.93;8.67;;;;;;;15.41;100.00;96549.47;5071845;28;20194;-78
2021/09/16 03:40:27;;;;;;;10.80;9.70;;;;;;;15.44;100.00;96557.03;5072051;28;20205;-78
2021/09/16 03:42:54;;;;;;;8.83;8.13;;;;;;;15.49;100.00;96561.78;5071637;28;20197;-78
2021/09/16 03:45:21;;;;;;;13.80;9.67;;;;;;;15.42;100.00;96559.03;5074424;28;20201;-78
2021/09/16 03:47:49;;;;;;;11.83;9.93;;;;;;;15.38;100.00;96562.25;5079810;28;20225;-79
2021/09/16 03:50:16;;;;;;;11.23;9.93;;;;;;;15.35;100.00;96565.25;5071859;28;20201;-78
2021/09/16 03:52:43;;;;;;;10.73;9.60;;;;;;;15.39;100.00;96561.22;5071499;28;20667;-78
2021/09/16 03:55:11;;;;;;;10.53;9.63;;;;;;;15.33;100.00;96570.72;5072164;28;20195;-78
2021/09/16 03:57:40;;;;;;;10.40;9.50;;;;;;;15.29;100.00;96561.50;5071966;28;20198;-78
2021/09/16 04:00:08;;;;;;;8.90;8.03;;;;;;;15.24;100.00;96566.53;5072070;28;20199;-78
2021/09/16 04:02:36;;;;;;;9.80;8.80;;;;;;;15.28;100.00;96567.81;5071534;28;20209;-78
2021/09/16 04:05:03;;;;;;;9.57;8.57;;;;;;;15.18;100.00;96573.34;5072069;28;20193;-78
2021/09/16 04:07:30;;;;;;;9.00;8.30;;;;;;;15.17;100.00;96569.06;5071597;28;20237;-78
2021/09/16 04:09:58;;;;;;;12.40;9.13;;;;;;;15.18;100.00;96567.22;5071672;28;20666;-78
2021/09/16 04:12:25;;;;;;;10.53;9.53;;;;;;;15.22;100.00;96569.34;5071633;28;20201;-78
2021/09/16 04:14:54;;;;;;;10.07;9.10;;;;;;;15.27;100.00;96571.44;5075362;28;20685;-78
2021/09/16 04:17:21;;;;;;;10.83;9.73;;;;;;;15.23;100.00;96576.25;5091579;28;20200;-78
2021/09/16 04:19:48;;;;;;;11.77;10.60;;;;;;;15.24;100.00;96577.13;5090682;28;20202;-78
2021/09/16 04:22:15;;;;;;;10.47;8.93;;;;;;;15.32;100.00;96568.25;5090212;28;20551;-78
2021/09/16 04:24:43;;;;;;;10.93;9.20;;;;;;;15.35;100.00;96574.00;5091520;28;20227;-77
2021/09/16 04:27:13;;;;;;;9.87;9.13;;;;;;;15.30;100.00;96573.72;5091702;28;20197;-77
2021/09/16 04:29:40;;;;;;;10.33;9.23;;;;;;;15.28;100.00;96573.09;5091331;28;20233;-77
2021/09/16 04:32:10;;;;;;;13.37;9.67;;;;;;;15.27;100.00;96576.72;5086850;28;20661;-77
2021/09/16 04:34:37;;;;;;;10.57;9.57;;;;;;;15.21;100.00;96578.28;5085428;28;20206;-77
2021/09/16 04:37:05;;;;;;;9.47;8.67;;;;;;;15.30;100.00;96579.00;5072600;28;20209;-77
2021/09/16 04:39:33;;;;;;;26.43;16.57;;;;;;;15.23;100.00;96580.75;5091530;28;20194;-77
2021/09/16 04:42:01;;;;;;;23.70;13.13;;;;;;;15.29;100.00;96592.44;5089757;28;20559;-77
2021/09/16 04:44:28;;;;;;;19.63;12.40;;;;;;;15.20;100.00;96584.56;5086106;28;20221;-78
2021/09/16 04:46:55;;;;;;;11.40;9.90;;;;;;;15.32;100.00;96576.19;5091665;28;20208;-77
2021/09/16 04:49:24;;;;;;;11.80;9.90;;;;;;;15.32;100.00;96582.31;5091263;28;20578;-78
2021/09/16 04:51:51;;;;;;;13.33;11.50;;;;;;;15.33;100.00;96583.13;5083191;28;20234;-78
2021/09/16 04:54:18;;;;;;;15.77;12.80;;;;;;;15.32;100.00;96584.97;5086306;28;20670;-77
2021/09/16 04:56:46;;;;;;;17.17;13.07;;;;;;;15.42;100.00;96580.22;5077424;28;20281;-78
2021/09/16 04:59:13;;;;;;;14.87;11.73;;;;;;;15.29;100.00;96580.03;5072387;28;20280;-78
2021/09/16 05:01:40;;;;;;;15.50;11.93;;;;;;;15.37;100.00;96581.78;5074227;28;20200;-77
2021/09/16 05:04:08;;;;;;;14.93;10.50;;;;;;;15.45;100.00;96577.22;5084631;28;20289;-78
2021/09/16 05:06:36;;;;;;;12.53;10.60;;;;;;;15.45;100.00;96574.56;5092385;28;20645;-78
2021/09/16 05:09:04;;;;;;;15.67;9.77;;;;;;;15.46;100.00;96576.22;5094884;28;20274;-77
2021/09/16 05:11:38;;;;;;;11.57;9.70;;;;;;;15.45;100.00;96568.47;5095137;28;20205;-78
2021/09/16 05:14:06;;;;;;;14.63;10.13;;;;;;;15.53;100.00;96567.53;5094629;28;20302;-78
2021/09/16 05:16:33;;;;;;;11.70;10.43;;;;;;;15.58;100.00;96565.16;5095049;28;20255;-78
2021/09/16 05:19:00;;;;;;;11.80;10.27;;;;;;;15.51;100.00;96569.53;5074942;28;20243;-77
2021/09/16 05:21:28;;;;;;;11.47;9.87;;;;;;;15.63;100.00;96568.09;5074440;28;20205;-77
2021/09/16 05:23:57;;;;;;;10.93;10.00;;;;;;;15.69;100.00;96559.47;5074447;28;20198;-77
2021/09/16 05:26:24;;;;;;;10.90;9.90;;;;;;;15.80;100.00;96556.34;5074869;28;20227;-78
2021/09/16 05:28:51;;;;;;;16.03;9.87;;;;;;;15.87;100.00;96561.72;5074376;28;20268;-78
2021/09/16 05:31:19;;;;;;;11.27;9.33;;;;;;;15.84;100.00;96556.78;5074333;28;20230;-77
2021/09/16 05:33:46;;;;;;;12.90;9.47;;;;;;;15.77;100.00;96559.34;5074288;28;20698;-78
2021/09/16 05:36:13;;;;;;;12.70;9.63;;;;;;;15.75;100.00;96557.88;5074422;28;20200;-78
2021/09/16 05:38:41;;;;;;;11.13;8.80;;;;;;;15.89;100.00;96563.16;5074250;28;20271;-77
2021/09/16 05:41:10;;;;;;;11.60;8.73;;;;;;;16.14;100.00;96560.19;5074105;28;20659;-78
2021/09/16 05:43:37;;;;;;;10.07;9.03;;;;;;;16.29;100.00;96571.59;5074184;28;20203;-77
2021/09/16 05:46:04;;;;;;;12.40;7.40;;;;;;;16.55;100.00;96580.84;5074309;28;20223;-77
2021/09/16 05:48:32;;;;;;;8.70;7.80;;;;;;;16.91;100.00;96596.78;5073932;28;20653;-77
2021/09/16 05:50:59;;;;;;;9.00;8.00;;;;;;;17.13;100.00;96608.19;5073852;28;20205;-77
2021/09/16 05:53:26;;;;;;;8.70;7.37;;;;;;;17.24;100.00;96610.31;5082137;28;20231;-78
2021/09/16 05:55:54;;;;;;;10.00;8.13;;;;;;;17.33;100.00;96619.00;5074301;28;20276;-77
2021/09/16 05:58:22;;;;;;;8.33;6.80;;;;;;;17.42;100.00;96614.34;5092567;28;20264;-77
2021/09/16 06:00:50;;;;;;;6.93;6.33;;;;;;;17.48;100.00;96618.88;5093987;28;20195;-77
2021/09/16 06:03:17;;;;;;;8.43;7.70;;;;;;;17.58;100.00;96627.34;5093906;28;20206;-78
2021/09/16 06:05:45;;;;;;;9.00;8.10;;;;;;;17.67;100.00;96628.84;5083434;28;20205;-78
2021/09/16 06:08:12;;;;;;;9.57;7.03;;;;;;;17.64;100.00;96629.25;5073584;28;20227;-78
2021/09/16 06:10:39;;;;;;;8.67;7.73;;;;;;;17.74;100.00;96628.91;5072608;28;20733;-78
2021/09/16 06:13:06;;;;;;;14.10;7.70;;;;;;;17.82;100.00;96629.59;5073885;28;20582;-78
2021/09/16 06:15:35;;;;;;;8.57;7.43;;;;;;;18.03;100.00;96633.19;5073772;28;20236;-78
2021/09/16 06:18:03;;;;;;;8.97;7.00;;;;;;;18.15;100.00;96636.09;5073413;28;20291;-77
2021/09/16 06:20:30;;;;;;;7.83;7.13;;;;;;;18.25;100.00;96642.72;5073391;28;20196;-77
2021/09/16 06:22:58;;;;;;;8.27;7.50;;;;;;;18.34;100.00;96635.38;5073251;28;20727;-78
2021/09/16 06:25:28;;;;;;;7.87;7.23;;;;;;;18.44;100.00;96643.81;5073553;28;20193;-78
2021/09/16 06:27:55;;;;;;;8.33;7.40;;;;;;;18.49;100.00;96644.03;5073169;28;20210;-77
2021/09/16 06:30:23;;;;;;;9.73;8.40;;;;;;;18.57;100.00;96643.06;5073059;28;20228;-78
2021/09/16 06:32:53;;;;;;;7.90;7.20;;;;;;;18.65;100.00;96648.19;5073122;28;20237;-77
2021/09/16 06:35:21;;;;;;;9.90;7.90;;;;;;;18.81;100.00;96652.38;5088852;28;20212;-78
2021/09/16 06:37:48;;;;;;;8.50;7.70;;;;;;;19.04;100.00;96657.31;5093277;28;20199;-78
2021/09/16 06:40:16;;;;;;;10.53;6.80;;;;;;;19.15;100.00;96661.25;5093187;28;20236;-78
2021/09/16 06:42:43;;;;;;;7.37;6.77;;;;;;;19.29;100.00;96657.56;5093109;28;20234;-78
2021/09/16 06:45:11;;;;;;;8.17;7.43;;;;;;;19.47;100.00;96665.78;5093380;28;20664;-78
2021/09/16 06:47:39;;;;;;;8.53;7.63;;;;;;;19.60;100.00;96654.28;5093034;28;20197;-78
2021/09/16 06:50:09;;;;;;;7.23;6.60;;;;;;;19.68;100.00;96675.47;5093036;28;20826;-78
2021/09/16 06:52:36;;;;;;;7.97;6.73;;;;;;;19.79;100.00;96683.88;5093301;28;20196;-78
2021/09/16 06:55:04;;;;;;;8.67;7.13;;;;;;;19.99;100.00;96682.00;5093441;28;20228;-78
2021/09/16 06:57:31;;;;;;;8.13;6.37;;;;;;;20.19;100.00;96682.78;5092838;28;20249;-78
2021/09/16 06:59:59;;;;;;;11.07;6.80;;;;;;;20.20;100.00;96675.59;5093056;28;20196;-78
2021/09/16 07:02:26;;;;;;;8.47;7.40;;;;;;;20.46;100.00;96685.34;5092870;28;20200;-78
2021/09/16 07:04:53;;;;;;;7.53;6.83;;;;;;;20.61;100.00;96690.50;5092919;28;20288;-78
2021/09/16 07:07:22;;;;;;;7.53;6.83;;;;;;;20.77;100.00;96695.34;5092792;28;20706;-78
2021/09/16 07:09:50;;;;;;;9.73;7.77;;;;;;;20.98;100.00;96696.06;5092530;28;20311;-78
2021/09/16 07:12:17;;;;;;;7.90;6.50;;;;;;;21.13;100.00;96693.94;5092726;28;20235;-78
2021/09/16 07:14:44;;;;;;;10.13;7.40;;;;;;;21.14;100.00;96700.91;5092739;28;20623;-78
2021/09/16 07:17:12;;;;;;;6.83;6.23;;;;;;;21.34;100.00;96701.63;5092883;28;20273;-78
2021/09/16 07:19:39;;;;;;;9.03;5.87;;;;;;;21.46;100.00;96714.31;5092556;28;20235;-78
2021/09/16 07:22:07;;;;;;;7.50;6.83;;;;;;;21.72;100.00;96711.44;5092693;28;20227;-78
2021/09/16 07:24:36;;;;;;;7.13;6.40;;;;;;;22.06;100.00;96712.81;5092779;28;20275;-78
2021/09/16 07:27:03;;;;;;;8.10;7.43;;;;;;;22.25;100.00;96715.53;5092567;28;20197;-78
2021/09/16 07:29:31;;;;;;;7.67;6.97;;;;;;;22.41;100.00;96720.31;5092148;28;20768;-78
2021/09/16 07:31:58;;;;;;;8.63;7.03;;;;;;;22.68;100.00;96728.03;5085666;28;20229;-78
2021/09/16 07:34:26;;;;;;;7.57;6.50;;;;;;;22.78;100.00;96728.34;5072102;28;20262;-78
2021/09/16 07:36:53;;;;;;;7.60;6.83;;;;;;;22.89;100.00;96730.25;5072389;28;20204;-78
2021/09/16 07:39:21;;;;;;;7.60;6.90;;;;;;;23.15;100.00;96718.41;5072042;28;20615;-79
2021/09/16 07:41:50;;;;;;;7.53;6.83;;;;;;;23.14;100.00;96722.16;5072200;28;20193;-78
2021/09/16 07:44:18;;;;;;;9.57;7.23;;;;;;;23.32;100.00;96718.59;5072299;28;20239;-78
2021/09/16 07:46:46;;;;;;;9.20;7.30;;;;;;;23.61;100.00;96729.50;5084953;28;20200;-79
2021/09/16 07:49:13;;;;;;;10.03;7.10;;;;;;;23.68;100.00;96735.63;5088729;28;20231;-79
2021/09/16 07:51:41;;;;;;;8.00;6.83;;;;;;;23.85;100.00;96727.72;5071955;28;20243;-78
2021/09/16 07:54:11;;;;;;;7.23;6.53;;;;;;;24.01;100.00;96726.25;5071956;28;20250;-79
2021/09/16 07:56:39;;;;;;;7.63;6.93;;;;;;;24.39;100.00;96729.25;5071764;28;20200;-79
2021/09/16 07:59:08;;;;;;;8.50;7.33;;;;;;;24.49;100.00;96733.25;5071798;28;20193;-79
2021/09/16 08:01:36;;;;;;;6.80;6.10;;;;;;;24.37;100.00;96727.84;5072125;28;20214;-79
2021/09/16 08:04:03;;;;;;;8.17;7.07;;;;;;;24.78;100.00;96729.59;5071829;28;20197;-78
2021/09/16 08:06:31;;;;;;;8.43;7.13;;;;;;;25.03;100.00;96733.84;5071581;28;20288;-79
2021/09/16 08:08:58;;;;;;;10.33;7.03;;;;;;;25.33;100.00;96737.16;5071576;28;20225;-79
2021/09/16 08:11:26;;;;;;;7.70;6.90;;;;;;;25.60;100.00;96747.31;5071778;28;20603;-79
2021/09/16 08:13:53;;;;;;;7.83;5.87;;;;;;;25.52;100.00;96750.38;5071886;28;20197;-79
2021/09/16 08:16:23;;;;;;;7.53;6.77;;;;;;;25.79;100.00;96753.28;5071544;28;20211;-78
2021/09/16 08:18:50;;;;;;;6.67;6.13;;;;;;;26.01;100.00;96756.09;5088676;28;20205;-79
2021/09/16 08:21:18;;;;;;;7.57;6.67;;;;;;;26.33;100.00;96759.84;5092309;28;20228;-79
2021/09/16 08:23:46;;;;;;;7.67;6.97;;;;;;;26.25;100.00;96762.13;5091980;28;20300;-79
2021/09/16 08:26:13;;;;;;;8.47;6.53;;;;;;;26.56;100.00;96761.53;5091648;28;20196;-79
2021/09/16 08:28:41;;;;;;;7.17;6.57;;;;;;;26.74;100.00;96763.16;5091720;28;20196;-79
2021/09/16 08:31:09;;;;;;;7.20;6.53;;;;;;;26.70;100.00;96756.63;5091924;28;20232;-79
2021/09/16 08:33:38;;;;;;;6.80;6.05;;;;;;;26.97;100.00;96758.59;5092079;28;20200;-79
2021/09/16 08:36:06;;;;;;;8.45;7.05;;;;;;;27.14;100.00;96753.16;5095854;28;20282;-79
2021/09/16 08:38:33;;;;;;;7.75;6.93;;;;;;;26.92;100.00;96756.66;5096043;28;20607;-79
2021/09/16 08:41:00;;;;;;;9.55;7.28;;;;;;;27.14;100.00;96756.66;5095799;28;20196;-79
2021/09/16 08:43:31;;;;;;;8.57;7.72;;;;;;;27.94;100.00;96746.97;5095506;28;20232;-79
2021/09/16 08:46:01;;;;;;;8.13;7.32;;;;;;;28.10;100.00;96749.78;5095801;28;20216;-79
2021/09/16 08:48:28;;;;;;;7.72;7.03;;;;;;;27.63;100.00;96745.03;5095590;28;20235;-79
2021/09/16 08:50:58;;;;;;;8.40;7.30;;;;;;;27.60;100.00;96740.94;5095818;28;20315;-79
2021/09/16 08:53:27;;;;;;;11.75;8.30;;;;;;;27.57;100.00;96746.03;5095552;28;20588;-79
2021/09/16 08:55:56;;;;;;;9.60;8.80;;;;;;;27.51;100.00;96742.50;5095265;28;20196;-79
2021/09/16 08:58:27;;;;;;;8.68;7.97;;;;;;;28.02;100.00;96742.16;5095264;28;20199;-79
2021/09/16 09:00:55;;;;;;;9.23;8.50;;;;;;;28.11;100.00;96741.41;5095472;28;20227;-79
2021/09/16 09:03:22;;;;;;;8.10;7.28;;;;;;;27.77;100.00;96743.56;5095228;28;20192;-79
2021/09/16 09:05:49;;;;;;;8.43;7.63;;;;;;;27.85;100.00;96742.28;5095240;28;20197;-80
2021/09/16 09:08:24;;;;;;;9.07;8.27;;;;;;;28.15;100.00;96744.41;5095271;28;20253;-79
2021/09/16 09:10:53;;;;;;;8.95;8.10;;;;;;;28.42;100.00;96750.59;5095085;28;20296;-79
2021/09/16 09:13:24;;;;;;;10.70;9.00;;;;;;;28.60;100.00;96754.75;5094965;28;20253;-79
2021/09/16 09:16:01;;;;;;;10.23;9.18;;;;;;;28.80;100.00;96755.94;5088414;28;20205;-80
2021/09/16 09:18:41;;;;;;;8.98;8.13;;;;;;;28.50;100.00;96746.56;5074967;28;20223;-79
2021/09/16 09:21:12;;;;;;;11.57;8.65;;;;;;;28.36;100.00;96742.66;5074791;28;20192;-79
2021/09/16 09:23:42;;;;;;;8.98;7.88;;;;;;;28.46;100.00;96750.88;5074875;28;20224;-79
2021/09/16 09:26:25;;;;;;;9.80;7.47;;;;;;;28.68;100.00;96754.28;5074472;28;20189;-79
2021/09/16 09:28:54;;;;;;;12.50;8.65;;;;;;;29.34;100.00;96753.75;5075000;28;20292;-79
2021/09/16 09:31:24;;;;;;;8.93;8.13;;;;;;;29.40;100.00;96746.44;5074649;28;20229;-80
2021/09/16 09:33:51;;;;;;;8.93;8.10;;;;;;;28.93;100.00;96752.75;5074256;28;20752;-79
2021/09/16 09:36:21;;;;;;;7.82;7.00;;;;;;;29.51;100.00;96747.28;5074416;28;20284;-79
2021/09/16 09:38:56;;;;;;;10.25;9.10;;;;;;;29.52;100.00;96749.72;5074236;28;20651;-79
2021/09/16 09:41:30;;;;;;;8.32;7.32;;;;;;;29.91;100.00;96749.25;5074418;28;20185;-79
2021/09/16 09:44:10;;;;;;;9.30;8.10;;;;;;;30.26;100.00;96747.66;5074173;28;20185;-79
2021/09/16 09:46:43;;;;;;;9.75;8.70;;;;;;;29.66;100.00;96739.22;5073076;28;20189;-79
2021/09/16 09:49:12;;;;;;;11.00;8.43;;;;;;;29.32;100.00;96741.56;5073930;28;20225;-79
2021/09/16 09:51:41;;;;;;;9.07;8.25;;;;;;;29.12;100.00;96743.13;5074166;28;20284;-79
2021/09/16 09:54:26;;;;;;;11.38;7.72;;;;;;;29.43;100.00;96743.19;5073767;28;20248;-79
2021/09/16 09:57:07;;;;;;;11.15;8.05;;;;;;;28.50;100.00;96738.47;5074103;28;20196;-79
2021/09/16 10:00:03;;;;;;;9.65;8.93;;;;;;;27.79;100.00;96733.34;5074245;28;20182;-79
2021/09/16 10:02:32;;;;;;;11.27;8.25;;;;;;;28.25;100.00;96725.56;5072628;28;20208;-79
2021/09/16 10:05:00;;;;;;;9.32;8.32;;;;;;;28.53;100.00;96740.66;5073934;28;20193;-79
2021/09/16 10:07:31;;;;;;;18.25;9.25;;;;;;;29.04;100.00;96732.00;5073721;28;20779;-79
2021/09/16 10:10:01;;;;;;;9.32;8.35;;;;;;;29.33;100.00;96730.44;5073819;28;20209;-79
2021/09/16 10:12:29;;;;;;;9.85;8.77;;;;;;;29.37;100.00;96734.28;5073411;28;20271;-79
2021/09/16 10:14:57;;;;;;;9.63;8.13;;;;;;;29.32;100.00;96736.94;5073749;28;20200;-79
2021/09/16 10:17:25;;;;;;;12.85;9.88;;;;;;;29.23;100.00;96725.00;5074147;28;20315;-79
2021/09/16 10:19:52;;;;;;;10.30;9.05;;;;;;;29.18;100.00;96729.59;5073642;28;20193;-79
2021/09/16 10:22:20;;;;;;;10.10;8.75;;;;;;;29.02;100.00;96726.84;5073570;28;20274;-79
2021/09/16 10:24:47;;;;;;;10.68;9.52;;;;;;;29.28;100.00;96719.63;5073664;28;20204;-79
2021/09/16 10:27:39;;;;;;;8.95;8.15;;;;;;;29.45;100.00;96719.38;5073785;28;20642;-79
2021/09/16 10:30:32;;;;;;;10.52;8.23;;;;;;;28.81;100.00;96716.97;5070574;28;20312;-80
2021/09/16 10:33:02;;;;;;;8.85;8.05;;;;;;;29.29;100.00;96717.72;5073035;28;20193;-79
2021/09/16 10:35:29;;;;;;;13.63;8.20;;;;;;;29.41;100.00;96718.31;5073336;28;20204;-80
2021/09/16 10:37:57;;;;;;;9.43;8.00;;;;;;;29.68;100.00;96707.25;5073152;28;20197;-79
2021/09/16 10:40:33;;;;;;;9.52;8.50;;;;;;;29.51;100.00;96703.94;5073443;28;20197;-79
2021/09/16 10:43:05;;;;;;;12.32;8.93;;;;;;;28.50;100.00;96705.19;5073560;28;20196;-79
2021/09/16 10:45:38;;;;;;;8.98;8.05;;;;;;;27.99;100.00;96702.97;5073098;28;20619;-79
2021/09/16 10:48:32;;;;;;;9.63;8.48;;;;;;;27.57;100.00;96695.56;5073083;28;20193;-79
2021/09/16 10:51:07;;;;;;;8.25;7.60;;;;;;;27.49;100.00;96696.03;5072715;28;20224;-79
2021/09/16 10:53:41;;;;;;;9.13;8.27;;;;;;;27.86;100.00;96696.13;5073032;28;20195;-79
2021/09/16 10:56:38;;;;;;;8.85;8.00;;;;;;;27.56;100.00;96696.63;5073079;28;20181;-79
2021/09/16 10:59:07;;;;;;;9.68;8.77;;;;;;;28.38;100.00;96691.88;5072704;28;20276;-79
2021/09/16 11:01:58;;;;;;;9.07;8.15;;;;;;;29.21;100.00;96691.19;5072576;28;20193;-79
2021/09/16 11:04:26;;;;;;;10.93;8.32;;;;;;;29.51;100.00;96688.53;5072539;28;20197;-79
2021/09/16 11:06:53;;;;;;;12.18;10.45;;;;;;;29.58;100.00;96693.66;5072734;28;20197;-79
2021/09/16 11:09:28;;;;;;;10.73;8.43;;;;;;;29.51;100.00;96691.25;5072455;28;20651;-79
2021/09/16 11:12:02;;;;;;;13.85;8.93;;;;;;;29.56;100.00;96685.00;5072641;28;20558;-79
2021/09/16 11:14:34;;;;;;;13.82;9.25;;;;;;;29.59;100.00;96673.66;5072697;28;20292;-79
2021/09/16 11:17:04;;;;;;;12.38;8.43;;;;;;;28.97;100.00;96680.00;5072559;28;20247;-79
2021/09/16 11:19:31;;;;;;;8.70;7.80;;;;;;;29.32;100.00;96677.38;5072320;28;20678;-79
2021/09/16 11:22:07;;;;;;;9.98;8.93;;;;;;;29.38;100.00;96679.03;5072222;28;20197;-79
2021/09/16 11:24:37;;;;;;;12.07;7.30;;;;;;;29.68;100.00;96677.44;5072821;28;20185;-79
2021/09/16 11:27:05;;;;;;;11.32;8.25;;;;;;;29.42;100.00;96673.88;5072600;28;20201;-79
2021/09/16 11:29:42;;;;;;;8.52;6.78;;;;;;;29.57;100.00;96671.19;5071795;28;20197;-79